createdAt,value
2022-10-05T00:05:13.127Z,21.15
2022-10-05T00:10:29.984Z,21.14
2022-10-05T00:15:45.744Z,21.13
2022-10-05T00:21:00.990Z,21.12
2022-10-05T00:26:16.736Z,21.12
2022-10-05T00:31:31.776Z,21.12
2022-10-05T00:36:46.968Z,21.11
2022-10-05T00:42:02.823Z,21.10
2022-10-05T00:47:17.696Z,21.09
2022-10-05T00:52:32.995Z,21.10
2022-10-05T00:57:48.705Z,21.10
2022-10-05T01:03:03.691Z,21.09
2022-10-05T01:08:18.772Z,21.12
2022-10-05T01:13:34.747Z,21.16
2022-10-05T01:18:49.714Z,21.18
2022-10-05T01:24:04.724Z,21.15
2022-10-05T01:29:19.762Z,21.11
2022-10-05T01:34:35.762Z,21.10
2022-10-05T01:39:51.012Z,21.08
2022-10-05T01:45:06.718Z,21.08
2022-10-05T01:50:22.052Z,21.07
2022-10-05T01:55:39.062Z,21.06
2022-10-05T02:00:54.774Z,21.07
2022-10-05T02:06:09.704Z,21.06
2022-10-05T02:11:24.785Z,21.05
2022-10-05T02:16:40.009Z,21.04
2022-10-05T02:21:55.701Z,21.02
2022-10-05T02:27:11.706Z,21.02
2022-10-05T02:32:26.695Z,21.00
2022-10-05T02:37:41.774Z,21.01
2022-10-05T02:42:56.753Z,21.00
2022-10-05T02:48:12.041Z,21.00
2022-10-05T02:53:27.695Z,21.00
2022-10-05T02:58:44.042Z,21.00
2022-10-05T03:04:01.055Z,21.00
2022-10-05T03:09:17.705Z,20.96
2022-10-05T03:14:34.979Z,20.99
2022-10-05T03:19:51.714Z,20.98
2022-10-05T03:25:06.771Z,20.97
2022-10-05T03:30:21.703Z,20.99
2022-10-05T03:35:37.712Z,21.02
2022-10-05T03:40:52.766Z,21.04
2022-10-05T03:46:08.741Z,21.01
2022-10-05T03:51:24.716Z,21.00
2022-10-05T03:56:40.708Z,20.99
2022-10-05T04:01:55.866Z,20.96
2022-10-05T04:07:11.995Z,20.97
2022-10-05T04:12:27.701Z,20.93
2022-10-05T04:17:43.010Z,20.93
2022-10-05T04:22:59.009Z,20.91
2022-10-05T04:28:15.531Z,20.90
2022-10-05T04:33:31.684Z,20.89
2022-10-05T04:38:47.732Z,20.87
2022-10-05T04:44:04.719Z,20.87
2022-10-05T04:49:20.761Z,20.86
2022-10-05T04:54:35.770Z,20.85
2022-10-05T04:59:51.714Z,20.83
2022-10-05T05:05:07.058Z,20.81
2022-10-05T05:10:22.984Z,20.80
2022-10-05T05:15:39.789Z,20.80
2022-10-05T05:20:54.757Z,20.79
2022-10-05T05:26:09.807Z,20.78
2022-10-05T05:31:26.101Z,20.79
2022-10-05T05:36:42.092Z,20.77
2022-10-05T05:41:57.713Z,20.75
2022-10-05T05:47:14.819Z,20.75
2022-10-05T05:52:31.723Z,20.72
2022-10-05T05:57:46.842Z,20.74
2022-10-05T06:03:02.842Z,20.74
2022-10-05T06:08:18.772Z,20.73
2022-10-05T06:13:39.748Z,20.72
2022-10-05T06:18:54.764Z,20.73
2022-10-05T06:24:09.544Z,20.72
2022-10-05T06:29:24.768Z,20.72
2022-10-05T06:34:39.740Z,20.71
2022-10-05T06:40:00.763Z,20.70
2022-10-05T06:45:18.737Z,20.70
2022-10-05T06:50:46.287Z,20.68
2022-10-05T06:56:20.482Z,20.68
2022-10-05T07:01:36.851Z,20.68
2022-10-05T07:06:51.800Z,20.67
2022-10-05T07:12:08.061Z,20.67
2022-10-05T07:17:23.783Z,20.66
2022-10-05T07:22:42.802Z,20.66
2022-10-05T07:27:57.753Z,20.66
2022-10-05T07:33:14.072Z,20.65
2022-10-05T07:38:30.068Z,20.66
2022-10-05T07:44:01.675Z,20.66
2022-10-05T07:49:18.784Z,20.66
2022-10-05T07:54:34.739Z,20.65
2022-10-05T07:59:49.810Z,20.65
2022-10-05T08:05:05.812Z,20.62
2022-10-05T08:10:24.813Z,20.64
2022-10-05T08:15:39.788Z,20.62
2022-10-05T08:20:56.032Z,20.63
2022-10-05T08:26:11.787Z,20.64
2022-10-05T08:31:26.838Z,20.63
2022-10-05T08:36:42.772Z,20.60
2022-10-05T08:41:57.736Z,20.62
2022-10-05T08:47:12.762Z,20.62
2022-10-05T08:52:27.510Z,20.62
2022-10-05T08:57:43.794Z,20.62
2022-10-05T09:02:59.159Z,20.63
2022-10-05T09:08:15.081Z,20.60
2022-10-05T09:13:30.789Z,20.60
2022-10-05T09:18:45.737Z,20.60
2022-10-05T09:24:00.732Z,20.60
2022-10-05T09:29:15.793Z,20.60
2022-10-05T09:34:30.775Z,20.60
2022-10-05T09:39:45.742Z,20.60
2022-10-05T09:45:00.522Z,20.59
2022-10-05T09:50:16.256Z,20.60
2022-10-05T09:55:31.735Z,20.59
2022-10-05T10:00:51.526Z,20.60
2022-10-05T10:06:15.054Z,20.61
2022-10-05T10:11:31.060Z,20.55
2022-10-05T10:16:47.051Z,20.56
2022-10-05T10:22:02.757Z,20.59
2022-10-05T10:27:17.847Z,20.53
2022-10-05T10:32:32.769Z,20.55
2022-10-05T10:37:47.818Z,20.57
2022-10-05T10:43:02.810Z,20.59
2022-10-05T10:48:17.502Z,20.58
2022-10-05T10:53:33.064Z,20.58
2022-10-05T10:58:48.591Z,20.59
2022-10-05T11:04:03.537Z,20.57
2022-10-05T11:09:18.737Z,20.58
2022-10-05T11:14:33.750Z,20.57
2022-10-05T11:20:05.261Z,20.57
2022-10-05T11:25:20.760Z,20.58
2022-10-05T11:30:35.740Z,20.58
2022-10-05T11:35:51.058Z,20.56
2022-10-05T11:41:06.748Z,20.57
2022-10-05T11:46:21.819Z,20.57
2022-10-05T11:51:36.783Z,20.57
2022-10-05T11:56:54.517Z,20.58
2022-10-05T12:02:09.811Z,20.58
2022-10-05T12:07:24.765Z,20.59
2022-10-05T12:12:39.546Z,20.58
2022-10-05T12:17:54.762Z,20.58
2022-10-05T12:23:09.748Z,20.58
2022-10-05T12:28:25.084Z,20.59
2022-10-05T12:33:40.764Z,20.57
2022-10-05T12:38:55.839Z,20.58
2022-10-05T12:44:10.775Z,20.57
2022-10-05T12:49:25.763Z,20.59
2022-10-05T12:54:40.797Z,20.59
2022-10-05T12:59:55.786Z,20.58
2022-10-05T13:05:10.845Z,20.58
2022-10-05T13:10:25.785Z,20.58
2022-10-05T13:15:40.771Z,20.59
2022-10-05T13:20:56.030Z,20.59
2022-10-05T13:26:12.207Z,20.59
2022-10-05T13:31:27.867Z,20.60
2022-10-05T13:36:42.803Z,20.61
2022-10-05T13:41:58.056Z,20.62
2022-10-05T13:47:13.555Z,20.65
2022-10-05T13:52:28.765Z,20.66
2022-10-05T13:57:44.073Z,20.67
2022-10-05T14:02:59.881Z,20.69
2022-10-05T14:08:14.772Z,20.69
2022-10-05T14:13:29.791Z,20.68
2022-10-05T14:18:45.088Z,20.67
2022-10-05T14:24:01.165Z,20.65
2022-10-05T14:29:16.753Z,20.67
2022-10-05T14:34:31.750Z,20.67
2022-10-05T14:39:46.809Z,20.66
2022-10-05T14:45:01.848Z,20.66
2022-10-05T14:50:16.765Z,20.66
2022-10-05T14:55:31.803Z,20.65
2022-10-05T15:00:48.930Z,20.66
2022-10-05T15:06:05.130Z,20.66
2022-10-05T15:11:21.133Z,20.66
2022-10-05T15:16:36.867Z,20.66
2022-10-05T15:21:52.101Z,20.66
2022-10-05T15:27:07.782Z,20.66
2022-10-05T15:32:23.278Z,20.67
2022-10-05T15:37:38.771Z,20.63
2022-10-05T15:42:53.754Z,20.67
2022-10-05T15:48:09.127Z,20.66
2022-10-05T15:53:24.774Z,20.67
2022-10-05T15:58:39.797Z,20.67
2022-10-05T16:03:55.080Z,20.67
2022-10-05T16:09:10.758Z,20.68
2022-10-05T16:14:25.845Z,20.69
2022-10-05T16:19:40.571Z,20.67
2022-10-05T16:24:55.885Z,20.70
2022-10-05T16:30:10.801Z,20.70
2022-10-05T16:35:26.109Z,20.71
2022-10-05T16:40:42.812Z,20.71
2022-10-05T16:45:57.940Z,20.73
2022-10-05T16:51:12.772Z,20.74
2022-10-05T16:56:28.168Z,20.74
2022-10-05T17:01:44.797Z,20.76
2022-10-05T17:06:59.814Z,20.76
2022-10-05T17:12:14.771Z,20.77
2022-10-05T17:17:30.113Z,20.76
2022-10-05T17:22:46.115Z,20.76
2022-10-05T17:28:01.824Z,20.76
2022-10-05T17:33:16.576Z,20.76
2022-10-05T17:38:32.028Z,20.77
2022-10-05T17:43:47.805Z,20.77
2022-10-05T17:49:41.822Z,20.74
2022-10-05T17:54:56.862Z,20.76
2022-10-05T18:00:12.096Z,20.76
2022-10-05T18:05:28.071Z,20.76
2022-10-05T18:10:44.006Z,20.76
2022-10-05T18:15:59.864Z,20.77
2022-10-05T18:21:15.114Z,20.76
2022-10-05T18:26:30.818Z,20.76
2022-10-05T18:31:46.110Z,20.76
2022-10-05T18:37:01.816Z,20.76
2022-10-05T18:42:16.778Z,20.77
2022-10-05T18:47:32.143Z,20.76
2022-10-05T18:52:47.777Z,20.74
2022-10-05T18:58:02.813Z,20.75
2022-10-05T19:03:18.786Z,20.76
2022-10-05T19:08:33.793Z,20.75
2022-10-05T19:13:48.848Z,20.74
2022-10-05T19:19:04.294Z,20.76
2022-10-05T19:24:19.812Z,20.75
2022-10-05T19:29:34.877Z,20.74
2022-10-05T19:34:50.111Z,20.74
2022-10-05T19:40:08.819Z,20.76
2022-10-05T19:45:24.821Z,20.85
2022-10-05T19:50:39.830Z,20.92
2022-10-05T19:55:54.597Z,20.95
2022-10-05T20:01:09.788Z,20.97
2022-10-05T20:06:25.127Z,20.98
2022-10-05T20:11:41.033Z,21.01
2022-10-05T20:16:56.995Z,21.09
2022-10-05T20:22:12.842Z,21.04
2022-10-05T20:27:27.802Z,20.97
2022-10-05T20:32:42.791Z,21.01
2022-10-05T20:37:57.878Z,21.03
2022-10-05T20:43:12.788Z,21.04
2022-10-05T20:48:28.335Z,21.05
2022-10-05T20:53:43.773Z,21.08
2022-10-05T20:58:59.179Z,21.11
2022-10-05T21:04:14.883Z,21.11
2022-10-05T21:09:29.793Z,21.14
2022-10-05T21:14:44.825Z,21.16
2022-10-05T21:19:59.844Z,21.17
2022-10-05T21:25:15.145Z,21.18
2022-10-05T21:30:30.809Z,21.19
2022-10-05T21:35:45.850Z,21.20
2022-10-05T21:41:00.847Z,21.19
2022-10-05T21:46:15.833Z,21.20
2022-10-05T21:51:31.105Z,21.21
2022-10-05T21:56:47.135Z,21.21
2022-10-05T22:02:02.804Z,21.22
2022-10-05T22:07:17.796Z,21.23
2022-10-05T22:12:32.809Z,21.25
2022-10-05T22:17:48.132Z,21.28
2022-10-05T22:23:03.794Z,21.28
2022-10-05T22:28:18.844Z,21.29
2022-10-05T22:33:33.788Z,21.33
2022-10-05T22:38:48.850Z,21.35
2022-10-05T22:44:03.811Z,21.35
2022-10-05T22:49:19.147Z,21.34
2022-10-05T22:54:37.298Z,21.34
2022-10-05T22:59:52.810Z,21.34
2022-10-05T23:05:07.801Z,21.35
2022-10-05T23:10:22.836Z,21.35
2022-10-05T23:15:37.808Z,21.35
2022-10-05T23:20:52.578Z,21.33
2022-10-05T23:26:07.788Z,21.34
2022-10-05T23:31:23.103Z,21.34
2022-10-05T23:36:38.846Z,21.36
2022-10-05T23:41:53.831Z,21.37
2022-10-05T23:47:08.838Z,21.38
2022-10-05T23:52:24.143Z,21.38
2022-10-05T23:57:39.763Z,21.38
